Huvudsida
METAR-TAF:

METAR-TAF

Flygplatser :

Vardø flygplats. Svartnes

Vardø, Norge

latitud: 70-21N, longitud: 031-03E, höjd: 12 m

Aktuellt väderrapport

Denna rapport gjordes för 44 minuter sedan, klockan 20:20 UTC
Vind 27 kt från väst
Temperatur -5°C
Fuktighet 86%
Tryck 1019 hPa
Sikt 10 km eller mer
Spridda moln på en höjd av 2800 ft
Spridda moln på en höjd av 3600 ft
högt snödrev

METAR: ENSS 212020Z 27027KT 9999 BLSN SCT028 SCT036 M05/M07 Q1019 RMK WIND 500FT 27035KT

Tid: 22:04 (21:04 UTC)


TAF: saknas

Aktuella väderrapporter och prognoser från 4000 flygplatser (METAR- och TAF-rapporter).

De tillgängliga stationerna syns som gula och röda prickar på kartan.

För musen över prickarna för att se namnen på stationerna.

Klicka sedan för att få väderrapporter och prognoser.

För att ändra kartan: Klicka på de gröna knapparna med ett svart kors på för att zooma in; den gröna knappen med ett streck på för att zooma ut; eller på de gröna pilarna för angränsande kartor.


METAR-TAF: